Time;durP1;ratioP1;P1;durP2;ratioP2;P2;SDS_P1;SDS_P2;PMS_P1;PMS_P2;Temp;Humidity;BMP_temperature;BMP_pressure;BME280_temperature;BME280_humidity;BME280_pressure;Samples;Min_cycle;Max_cycle;Signal;HPM_P1;HPM_P2
2022/06/03 00:00:01;;;;;;;;;;;;;;;;;;343358;28;840;-74
2022/06/03 00:00:19;;;;;;;;;;;;;;;;;;340705;29;831;-74
2022/06/03 00:00:47;;;;;;;;;;;;;;;;;;340658;29;863;-74
2022/06/03 00:01:03;;;;;;;;;;;;;;;;;;340606;29;941;-74
2022/06/03 00:01:26;;;;;;;;;;;;;;;;;;340650;29;773;-74
2022/06/03 00:01:42;;;;;;;;;;;;;;;;;;340676;29;996;-74
2022/06/03 00:02:05;;;;;;;;;;;;;;;;;;340270;29;1863;-74
2022/06/03 00:02:30;;;;;;;;;;;;;;;;;;341963;29;905;-74
2022/06/03 00:02:55;;;;;;;;;;;;;;;;;;341996;29;949;-74
2022/06/03 00:03:26;;;;;;;;;;;;;;;;;;341861;28;1792;-74
2022/06/03 00:03:59;;;;;;;;;;;;;;;;;;341756;29;1027;-74
2022/06/03 00:04:21;;;;;;;;;;;;;;;;;;339168;29;1049;-74
2022/06/03 00:05:03;;;;;;;;;;;;;;;;;;339283;29;978;-74
2022/06/03 00:05:32;;;;;;;;;;;;;;;;;;338052;29;1131;-74
2022/06/03 00:05:45;;;;;;;;;;;;;;;;;;343289;28;1004;-74
2022/06/03 00:06:04;;;;;;;;;;;;;;;;;;343353;28;981;-74
2022/06/03 00:06:27;;;;;;;;;;;;;;;;;;343282;28;929;-74
2022/06/03 00:06:56;;;;;;;;;;;;;;;;;;343292;28;945;-74
2022/06/03 00:07:24;;;;;;;;;;;;;;;;;;343208;28;922;-74
2022/06/03 00:07:54;;;;;;;;;;;;;;;;;;341531;29;1396;-73
2022/06/03 00:08:14;;;;;;;;;;;;;;;;;;340568;29;1020;-74
2022/06/03 00:08:36;;;;;;;;;;;;;;;;;;340634;29;1025;-74
2022/06/03 00:08:46;;;;;;;;;;;;;;;;;;340581;29;1084;-74
2022/06/03 00:08:59;;;;;;;;;;;;;;;;;;340671;29;867;-74
2022/06/03 00:09:20;;;;;;;;;;;;;;;;;;340684;29;1026;-74
2022/06/03 00:09:39;;;;;;;;;;;;;;;;;;342905;28;934;-74
2022/06/03 00:10:13;;;;;;;;;;;;;;;;;;343341;28;812;-74
2022/06/03 00:10:26;;;;;;;;;;;;;;;;;;343297;28;910;-74
2022/06/03 00:10:36;;;;;;;;;;;;;;;;;;343343;28;787;-74
2022/06/03 00:10:47;;;;;;;;;;;;;;;;;;343311;28;937;-74
2022/06/03 00:11:15;;;;;;;;;;;;;;;;;;343252;28;1024;-74
2022/06/03 00:11:38;;;;;;;;;;;;;;;;;;343305;28;969;-74
2022/06/03 00:12:07;;;;;;;;;;;;;;;;;;343311;28;826;-74
2022/06/03 00:12:17;;;;;;;;;;;;;;;;;;343284;28;908;-74
2022/06/03 00:12:48;;;;;;;;;;;;;;;;;;343312;28;921;-74
2022/06/03 00:13:19;;;;;;;;;;;;;;;;;;343228;28;957;-74
2022/06/03 00:13:49;;;;;;;;;;;;;;;;;;342993;28;1020;-73
2022/06/03 00:14:05;;;;;;;;;;;;;;;;;;343267;28;965;-74
2022/06/03 00:14:27;;;;;;;;;;;;;;;;;;343284;28;917;-74
2022/06/03 00:15:04;;;;;;;;;;;;;;;;;;343252;28;920;-74
2022/06/03 00:15:31;;;;;;;;;;;;;;;;;;343044;28;1073;-74
2022/06/03 00:15:47;;;;;;;;;;;;;;;;;;343083;28;918;-74
2022/06/03 00:16:24;;;;;;;;;;;;;;;;;;343154;28;830;-74
2022/06/03 00:16:50;;;;;;;;;;;;;;;;;;343314;28;910;-74
2022/06/03 00:17:05;;;;;;;;;;;;;;;;;;343289;28;1089;-74
2022/06/03 00:17:38;;;;;;;;;;;;;;;;;;343284;28;858;-74
2022/06/03 00:17:55;;;;;;;;;;;;;;;;;;343240;28;914;-74
2022/06/03 00:18:31;;;;;;;;;;;;;;;;;;343213;28;1035;-74
2022/06/03 00:18:56;;;;;;;;;;;;;;;;;;343133;28;999;-74
2022/06/03 00:19:11;;;;;;;;;;;;;;;;;;343181;28;910;-74
2022/06/03 00:19:33;;;;;;;;;;;;;;;;;;343130;28;930;-74
2022/06/03 00:19:47;;;;;;;;;;;;;;;;;;343216;28;925;-74
2022/06/03 00:20:00;;;;;;;;;;;;;;;;;;343226;28;988;-74
2022/06/03 00:20:13;;;;;;;;;;;;;;;;;;343305;28;1036;-74
2022/06/03 00:20:24;;;;;;;;;;;;;;;;;;343286;28;804;-74
2022/06/03 00:20:44;;;;;;;;;;;;;;;;;;343228;28;1348;-74
2022/06/03 00:21:09;;;;;;;;;;;;;;;;;;343293;28;831;-74
2022/06/03 00:21:25;;;;;;;;;;;;;;;;;;343284;28;840;-74
2022/06/03 00:21:47;;;;;;;;;;;;;;;;;;343245;28;925;-74
2022/06/03 00:21:57;;;;;;;;;;;;;;;;;;343268;28;976;-74
2022/06/03 00:22:14;;;;;;;;;;;;;;;;;;343234;28;886;-74
2022/06/03 00:22:42;;;;;;;;;;;;;;;;;;343251;28;977;-74
2022/06/03 00:23:10;;;;;;;;;;;;;;;;;;343308;28;961;-74
2022/06/03 00:23:20;;;;;;;;;;;;;;;;;;343278;28;791;-74
2022/06/03 00:23:42;;;;;;;;;;;;;;;;;;343286;28;922;-74
2022/06/03 00:24:01;;;;;;;;;;;;;;;;;;343251;28;985;-74
2022/06/03 00:24:26;;;;;;;;;;;;;;;;;;343242;28;842;-74
2022/06/03 00:24:42;;;;;;;;;;;;;;;;;;343287;28;914;-74
2022/06/03 00:24:55;;;;;;;;;;;;;;;;;;343266;28;926;-74
2022/06/03 00:25:17;;;;;;;;;;;;;;;;;;343278;28;1025;-74
2022/06/03 00:25:30;;;;;;;;;;;;;;;;;;343226;28;902;-74
2022/06/03 00:25:52;;;;;;;;;;;;;;;;;;343327;28;775;-74
2022/06/03 00:26:11;;;;;;;;;;;;;;;;;;343235;28;862;-74
2022/06/03 00:26:40;;;;;;;;;;;;;;;;;;343278;28;814;-74
2022/06/03 00:27:02;;;;;;;;;;;;;;;;;;343169;28;1978;-74
2022/06/03 00:27:24;;;;;;;;;;;;;;;;;;343266;28;974;-74
2022/06/03 00:27:34;;;;;;;;;;;;;;;;;;343235;28;917;-74
2022/06/03 00:28:03;;;;;;;;;;;;;;;;;;343175;28;918;-74
2022/06/03 00:28:16;;;;;;;;;;;;;;;;;;343194;28;985;-74
2022/06/03 00:28:35;;;;;;;;;;;;;;;;;;343274;28;1045;-74
2022/06/03 00:28:57;;;;;;;;;;;;;;;;;;343278;28;992;-74
2022/06/03 00:29:16;;;;;;;;;;;;;;;;;;343251;28;988;-74
2022/06/03 00:29:45;;;;;;;;;;;;;;;;;;343271;28;930;-74
2022/06/03 00:29:58;;;;;;;;;;;;;;;;;;342177;28;1802;-74
2022/06/03 00:30:20;;;;;;;;;;;;;;;;;;343230;28;945;-73
2022/06/03 00:30:32;;;;;;;;;;;;;;;;;;343228;28;981;-74
2022/06/03 00:31:01;;;;;;;;;;;;;;;;;;343249;28;958;-74
2022/06/03 00:31:43;;;;;;;;;;;;;;;;;;343213;28;946;-74
2022/06/03 00:32:16;;;;;;;;;;;;;;;;;;343081;28;920;-74
2022/06/03 00:32:29;;;;;;;;;;;;;;;;;;343000;28;1222;-74
2022/06/03 00:32:57;;;;;;;;;;;;;;;;;;343119;28;922;-74
2022/06/03 00:33:16;;;;;;;;;;;;;;;;;;343017;28;911;-74
2022/06/03 00:33:45;;;;;;;;;;;;;;;;;;343342;28;961;-74
2022/06/03 00:34:03;;;;;;;;;;;;;;;;;;341753;29;1563;-74
2022/06/03 00:34:22;;;;;;;;;;;;;;;;;;341906;29;922;-74
2022/06/03 00:34:44;;;;;;;;;;;;;;;;;;341735;29;1011;-74
2022/06/03 00:35:13;;;;;;;;;;;;;;;;;;341888;29;1000;-74
2022/06/03 00:35:23;;;;;;;;;;;;;;;;;;341970;29;882;-73
2022/06/03 00:35:42;;;;;;;;;;;;;;;;;;341945;29;934;-73
2022/06/03 00:36:06;;;;;;;;;;;;;;;;;;341922;29;851;-74
2022/06/03 00:36:33;;;;;;;;;;;;;;;;;;341001;29;1322;-74
2022/06/03 00:36:49;;;;;;;;;;;;;;;;;;340490;29;1006;-74
2022/06/03 00:37:13;;;;;;;;;;;;;;;;;;340600;28;1387;-73
2022/06/03 00:37:29;;;;;;;;;;;;;;;;;;341977;29;993;-74
2022/06/03 00:37:39;;;;;;;;;;;;;;;;;;341865;29;969;-74
2022/06/03 00:37:54;;;;;;;;;;;;;;;;;;341982;29;914;-74
2022/06/03 00:38:23;;;;;;;;;;;;;;;;;;341964;29;934;-74
2022/06/03 00:38:33;;;;;;;;;;;;;;;;;;341954;29;917;-74
2022/06/03 00:39:07;;;;;;;;;;;;;;;;;;341851;29;922;-74
2022/06/03 00:39:23;;;;;;;;;;;;;;;;;;340460;29;966;-74
2022/06/03 00:39:48;;;;;;;;;;;;;;;;;;340413;29;1062;-74
2022/06/03 00:40:20;;;;;;;;;;;;;;;;;;340480;29;787;-74
2022/06/03 00:40:37;;;;;;;;;;;;;;;;;;340626;29;949;-74
2022/06/03 00:40:56;;;;;;;;;;;;;;;;;;340552;29;844;-74
2022/06/03 00:41:13;;;;;;;;;;;;;;;;;;340600;29;977;-74
2022/06/03 00:41:26;;;;;;;;;;;;;;;;;;340624;29;1003;-73
2022/06/03 00:41:49;;;;;;;;;;;;;;;;;;340607;29;1081;-74
2022/06/03 00:42:02;;;;;;;;;;;;;;;;;;340584;29;915;-74
2022/06/03 00:42:12;;;;;;;;;;;;;;;;;;340657;29;855;-74
2022/06/03 00:42:40;;;;;;;;;;;;;;;;;;340608;29;1008;-74
2022/06/03 00:43:13;;;;;;;;;;;;;;;;;;340536;29;934;-74
2022/06/03 00:43:45;;;;;;;;;;;;;;;;;;340589;29;1042;-74
2022/06/03 00:44:07;;;;;;;;;;;;;;;;;;340582;29;1034;-74
2022/06/03 00:44:17;;;;;;;;;;;;;;;;;;340623;29;906;-74
2022/06/03 00:44:46;;;;;;;;;;;;;;;;;;340588;29;946;-74
2022/06/03 00:45:04;;;;;;;;;;;;;;;;;;340438;29;1017;-74
2022/06/03 00:45:33;;;;;;;;;;;;;;;;;;340636;29;922;-74
2022/06/03 00:45:43;;;;;;;;;;;;;;;;;;340556;29;989;-74
2022/06/03 00:46:12;;;;;;;;;;;;;;;;;;340567;29;1085;-74
2022/06/03 00:46:39;;;;;;;;;;;;;;;;;;340545;29;918;-74
2022/06/03 00:47:01;;;;;;;;;;;;;;;;;;340503;29;1974;-74
2022/06/03 00:47:14;;;;;;;;;;;;;;;;;;340595;29;919;-74
2022/06/03 00:47:57;;;;;;;;;;;;;;;;;;340568;29;939;-74
2022/06/03 00:48:34;;;;;;;;;;;;;;;;;;339075;29;990;-74
2022/06/03 00:49:02;;;;;;;;;;;;;;;;;;340148;29;1066;-74
2022/06/03 00:49:25;;;;;;;;;;;;;;;;;;340418;29;977;-74
2022/06/03 00:49:47;;;;;;;;;;;;;;;;;;341973;29;914;-74
2022/06/03 00:50:11;;;;;;;;;;;;;;;;;;341898;29;791;-74
2022/06/03 00:50:40;;;;;;;;;;;;;;;;;;341281;28;1812;-74
2022/06/03 00:51:15;;;;;;;;;;;;;;;;;;343258;28;988;-74
2022/06/03 00:51:25;;;;;;;;;;;;;;;;;;343290;28;984;-74
2022/06/03 00:51:35;;;;;;;;;;;;;;;;;;343287;28;866;-74
2022/06/03 00:51:48;;;;;;;;;;;;;;;;;;343265;28;922;-74
2022/06/03 00:51:59;;;;;;;;;;;;;;;;;;343216;28;882;-74
2022/06/03 00:52:09;;;;;;;;;;;;;;;;;;343260;28;954;-73
2022/06/03 00:52:34;;;;;;;;;;;;;;;;;;343268;28;984;-74
2022/06/03 00:53:05;;;;;;;;;;;;;;;;;;343201;28;973;-74
2022/06/03 00:53:25;;;;;;;;;;;;;;;;;;343188;28;930;-74
2022/06/03 00:53:44;;;;;;;;;;;;;;;;;;343255;28;992;-74
2022/06/03 00:54:07;;;;;;;;;;;;;;;;;;343253;28;961;-74
2022/06/03 00:54:35;;;;;;;;;;;;;;;;;;343272;28;859;-74
2022/06/03 00:55:04;;;;;;;;;;;;;;;;;;343210;28;949;-74
2022/06/03 00:55:29;;;;;;;;;;;;;;;;;;343262;28;783;-74
2022/06/03 00:55:59;;;;;;;;;;;;;;;;;;343224;28;942;-74
2022/06/03 00:56:33;;;;;;;;;;;;;;;;;;343187;28;957;-73
2022/06/03 00:56:47;;;;;;;;;;;;;;;;;;343040;28;1241;-74
2022/06/03 00:57:07;;;;;;;;;;;;;;;;;;343194;28;880;-74
2022/06/03 00:57:25;;;;;;;;;;;;;;;;;;343257;28;849;-74
2022/06/03 00:57:45;;;;;;;;;;;;;;;;;;343085;28;910;-74
2022/06/03 00:58:20;;;;;;;;;;;;;;;;;;342550;28;1826;-74
2022/06/03 00:58:30;;;;;;;;;;;;;;;;;;340610;29;977;-74
2022/06/03 00:58:53;;;;;;;;;;;;;;;;;;340629;29;799;-74
2022/06/03 00:59:26;;;;;;;;;;;;;;;;;;340577;29;832;-74
2022/06/03 00:59:44;;;;;;;;;;;;;;;;;;340591;29;804;-74
2022/06/03 00:59:57;;;;;;;;;;;;;;;;;;340623;29;925;-74
2022/06/03 01:00:10;;;;;;;;;;;;;;;;;;340537;29;1033;-74
2022/06/03 01:00:20;;;;;;;;;;;;;;;;;;340599;29;930;-74
2022/06/03 01:00:42;;;;;;;;;;;;;;;;;;340550;29;970;-74
2022/06/03 01:00:55;;;;;;;;;;;;;;;;;;340566;29;922;-74
2022/06/03 01:01:05;;;;;;;;;;;;;;;;;;340565;29;1038;-74
2022/06/03 01:01:23;;;;;;;;;;;;;;;;;;340516;29;860;-74
2022/06/03 01:01:52;;;;;;;;;;;;;;;;;;340534;29;994;-74
2022/06/03 01:02:26;;;;;;;;;;;;;;;;;;340506;29;1093;-74
2022/06/03 01:02:39;;;;;;;;;;;;;;;;;;340589;29;938;-74
2022/06/03 01:02:52;;;;;;;;;;;;;;;;;;340509;29;1312;-74
2022/06/03 01:03:21;;;;;;;;;;;;;;;;;;340608;29;1008;-74
2022/06/03 01:03:37;;;;;;;;;;;;;;;;;;340522;29;930;-74
2022/06/03 01:04:05;;;;;;;;;;;;;;;;;;340574;29;990;-74
2022/06/03 01:04:16;;;;;;;;;;;;;;;;;;340528;29;843;-73
2022/06/03 01:04:35;;;;;;;;;;;;;;;;;;340612;29;777;-74
2022/06/03 01:04:54;;;;;;;;;;;;;;;;;;340553;29;926;-74
2022/06/03 01:05:16;;;;;;;;;;;;;;;;;;340564;29;938;-74
2022/06/03 01:05:26;;;;;;;;;;;;;;;;;;340599;29;915;-74
2022/06/03 01:06:02;;;;;;;;;;;;;;;;;;340586;29;969;-74
2022/06/03 01:06:30;;;;;;;;;;;;;;;;;;340590;29;978;-74
2022/06/03 01:06:47;;;;;;;;;;;;;;;;;;340553;29;930;-74
2022/06/03 01:07:05;;;;;;;;;;;;;;;;;;340529;29;1903;-74
2022/06/03 01:07:21;;;;;;;;;;;;;;;;;;341779;29;919;-74
2022/06/03 01:07:34;;;;;;;;;;;;;;;;;;341881;29;918;-73
2022/06/03 01:07:47;;;;;;;;;;;;;;;;;;341900;29;992;-74
2022/06/03 01:08:23;;;;;;;;;;;;;;;;;;341837;28;934;-74
2022/06/03 01:08:57;;;;;;;;;;;;;;;;;;341870;29;1016;-74
2022/06/03 01:09:30;;;;;;;;;;;;;;;;;;341762;29;1025;-74
2022/06/03 01:09:52;;;;;;;;;;;;;;;;;;341652;29;1029;-74
2022/06/03 01:10:10;;;;;;;;;;;;;;;;;;341725;29;1244;-74
2022/06/03 01:10:23;;;;;;;;;;;;;;;;;;341827;29;934;-74
2022/06/03 01:10:45;;;;;;;;;;;;;;;;;;341866;29;1014;-74
2022/06/03 01:11:05;;;;;;;;;;;;;;;;;;341805;29;987;-74
2022/06/03 01:11:19;;;;;;;;;;;;;;;;;;341912;29;950;-74
2022/06/03 01:11:44;;;;;;;;;;;;;;;;;;341918;29;839;-74
2022/06/03 01:12:00;;;;;;;;;;;;;;;;;;341805;29;1274;-74
2022/06/03 01:12:30;;;;;;;;;;;;;;;;;;341911;29;914;-74
2022/06/03 01:12:59;;;;;;;;;;;;;;;;;;341852;29;1057;-74
2022/06/03 01:13:19;;;;;;;;;;;;;;;;;;341856;29;835;-74
2022/06/03 01:13:48;;;;;;;;;;;;;;;;;;341857;29;993;-74
2022/06/03 01:14:19;;;;;;;;;;;;;;;;;;341892;29;875;-74
2022/06/03 01:14:41;;;;;;;;;;;;;;;;;;341884;29;1005;-74
2022/06/03 01:14:58;;;;;;;;;;;;;;;;;;341898;29;919;-74
2022/06/03 01:15:09;;;;;;;;;;;;;;;;;;341898;29;1009;-74
2022/06/03 01:15:22;;;;;;;;;;;;;;;;;;341845;29;907;-74
2022/06/03 01:15:50;;;;;;;;;;;;;;;;;;343115;28;922;-74
2022/06/03 01:16:00;;;;;;;;;;;;;;;;;;343231;28;1009;-74
2022/06/03 01:16:13;;;;;;;;;;;;;;;;;;343156;28;1041;-74
2022/06/03 01:16:23;;;;;;;;;;;;;;;;;;343196;28;925;-74
2022/06/03 01:16:49;;;;;;;;;;;;;;;;;;343220;28;918;-73
2022/06/03 01:17:12;;;;;;;;;;;;;;;;;;343225;28;870;-74
2022/06/03 01:17:22;;;;;;;;;;;;;;;;;;343238;28;929;-74
2022/06/03 01:18:01;;;;;;;;;;;;;;;;;;343150;28;996;-74
2022/06/03 01:18:19;;;;;;;;;;;;;;;;;;343201;28;892;-74
2022/06/03 01:18:47;;;;;;;;;;;;;;;;;;343178;28;914;-74
2022/06/03 01:19:00;;;;;;;;;;;;;;;;;;343227;28;965;-74
2022/06/03 01:19:16;;;;;;;;;;;;;;;;;;343218;28;996;-74
2022/06/03 01:19:44;;;;;;;;;;;;;;;;;;343160;28;1056;-74
2022/06/03 01:20:13;;;;;;;;;;;;;;;;;;343201;28;870;-74
2022/06/03 01:20:34;;;;;;;;;;;;;;;;;;343176;28;781;-74
2022/06/03 01:20:45;;;;;;;;;;;;;;;;;;343137;28;982;-74
2022/06/03 01:20:58;;;;;;;;;;;;;;;;;;343159;28;1013;-74
2022/06/03 01:21:23;;;;;;;;;;;;;;;;;;343213;28;925;-74
2022/06/03 01:21:40;;;;;;;;;;;;;;;;;;343140;28;918;-74
2022/06/03 01:22:09;;;;;;;;;;;;;;;;;;343185;28;954;-74
2022/06/03 01:22:28;;;;;;;;;;;;;;;;;;342748;28;1005;-74
2022/06/03 01:22:57;;;;;;;;;;;;;;;;;;343132;28;1104;-74
2022/06/03 01:23:18;;;;;;;;;;;;;;;;;;343181;28;930;-74
2022/06/03 01:23:52;;;;;;;;;;;;;;;;;;343266;28;858;-73
2022/06/03 01:24:08;;;;;;;;;;;;;;;;;;343216;28;934;-74
2022/06/03 01:24:37;;;;;;;;;;;;;;;;;;343221;28;977;-74
2022/06/03 01:25:09;;;;;;;;;;;;;;;;;;343171;28;1028;-74
2022/06/03 01:25:32;;;;;;;;;;;;;;;;;;343154;28;898;-74
2022/06/03 01:25:54;;;;;;;;;;;;;;;;;;343205;28;958;-73
2022/06/03 01:26:05;;;;;;;;;;;;;;;;;;343241;28;866;-74
2022/06/03 01:26:26;;;;;;;;;;;;;;;;;;343183;28;970;-74
2022/06/03 01:26:43;;;;;;;;;;;;;;;;;;343158;28;890;-74
2022/06/03 01:27:07;;;;;;;;;;;;;;;;;;341306;28;1986;-74
2022/06/03 01:27:35;;;;;;;;;;;;;;;;;;342368;28;919;-74
2022/06/03 01:28:04;;;;;;;;;;;;;;;;;;343135;28;1004;-74
2022/06/03 01:28:20;;;;;;;;;;;;;;;;;;343140;28;969;-74
2022/06/03 01:29:02;;;;;;;;;;;;;;;;;;343227;28;862;-74
2022/06/03 01:29:16;;;;;;;;;;;;;;;;;;343061;28;911;-74
2022/06/03 01:29:44;;;;;;;;;;;;;;;;;;343086;28;858;-74
2022/06/03 01:30:13;;;;;;;;;;;;;;;;;;343024;28;955;-74
2022/06/03 01:30:24;;;;;;;;;;;;;;;;;;342946;28;1211;-74
2022/06/03 01:30:40;;;;;;;;;;;;;;;;;;343165;28;885;-74
2022/06/03 01:31:02;;;;;;;;;;;;;;;;;;343167;28;970;-74
2022/06/03 01:31:15;;;;;;;;;;;;;;;;;;343150;28;1022;-74
2022/06/03 01:31:43;;;;;;;;;;;;;;;;;;343195;28;854;-74
2022/06/03 01:32:03;;;;;;;;;;;;;;;;;;343132;28;851;-74
2022/06/03 01:32:22;;;;;;;;;;;;;;;;;;343153;28;855;-74
2022/06/03 01:32:53;;;;;;;;;;;;;;;;;;343171;28;882;-74
2022/06/03 01:33:06;;;;;;;;;;;;;;;;;;343127;28;860;-74
2022/06/03 01:33:35;;;;;;;;;;;;;;;;;;343137;28;965;-74
2022/06/03 01:34:00;;;;;;;;;;;;;;;;;;343211;28;868;-74
2022/06/03 01:34:25;;;;;;;;;;;;;;;;;;343202;28;872;-74
2022/06/03 01:34:35;;;;;;;;;;;;;;;;;;343235;28;839;-74
2022/06/03 01:34:54;;;;;;;;;;;;;;;;;;343147;28;937;-74
2022/06/03 01:35:10;;;;;;;;;;;;;;;;;;343223;28;934;-74
2022/06/03 01:35:32;;;;;;;;;;;;;;;;;;343186;28;929;-74
2022/06/03 01:36:01;;;;;;;;;;;;;;;;;;343205;28;938;-74
2022/06/03 01:36:34;;;;;;;;;;;;;;;;;;341637;29;1347;-73
2022/06/03 01:37:03;;;;;;;;;;;;;;;;;;341819;29;1092;-74
2022/06/03 01:37:13;;;;;;;;;;;;;;;;;;341089;28;1446;-73
2022/06/03 01:37:42;;;;;;;;;;;;;;;;;;343226;28;930;-74
2022/06/03 01:37:55;;;;;;;;;;;;;;;;;;343143;28;836;-74
2022/06/03 01:38:11;;;;;;;;;;;;;;;;;;343218;28;938;-74
2022/06/03 01:38:29;;;;;;;;;;;;;;;;;;343184;28;965;-74
2022/06/03 01:38:50;;;;;;;;;;;;;;;;;;343178;28;965;-74
2022/06/03 01:39:00;;;;;;;;;;;;;;;;;;343062;28;867;-74
2022/06/03 01:39:13;;;;;;;;;;;;;;;;;;343189;28;942;-74
2022/06/03 01:39:29;;;;;;;;;;;;;;;;;;343170;28;847;-74
2022/06/03 01:39:42;;;;;;;;;;;;;;;;;;343214;28;946;-74
2022/06/03 01:40:01;;;;;;;;;;;;;;;;;;343176;28;913;-74
2022/06/03 01:40:23;;;;;;;;;;;;;;;;;;343212;28;866;-74
2022/06/03 01:40:41;;;;;;;;;;;;;;;;;;343154;28;1008;-73
2022/06/03 01:40:55;;;;;;;;;;;;;;;;;;343222;28;811;-74
2022/06/03 01:41:13;;;;;;;;;;;;;;;;;;343014;28;950;-73
2022/06/03 01:41:32;;;;;;;;;;;;;;;;;;343208;28;858;-74
2022/06/03 01:41:46;;;;;;;;;;;;;;;;;;340588;28;1415;-74
2022/06/03 01:42:14;;;;;;;;;;;;;;;;;;341862;29;994;-74
2022/06/03 01:42:32;;;;;;;;;;;;;;;;;;340526;29;908;-74
2022/06/03 01:42:42;;;;;;;;;;;;;;;;;;340566;29;998;-74
2022/06/03 01:43:05;;;;;;;;;;;;;;;;;;340518;29;990;-74
2022/06/03 01:43:24;;;;;;;;;;;;;;;;;;341725;29;973;-74
2022/06/03 01:43:37;;;;;;;;;;;;;;;;;;341821;29;1065;-73
2022/06/03 01:43:48;;;;;;;;;;;;;;;;;;341724;29;938;-74
2022/06/03 01:44:01;;;;;;;;;;;;;;;;;;341820;29;918;-74
2022/06/03 01:44:30;;;;;;;;;;;;;;;;;;341836;29;1045;-74
2022/06/03 01:44:58;;;;;;;;;;;;;;;;;;341946;29;780;-74
2022/06/03 01:45:23;;;;;;;;;;;;;;;;;;341807;29;1008;-74
2022/06/03 01:45:34;;;;;;;;;;;;;;;;;;341850;29;1021;-74
2022/06/03 01:46:06;;;;;;;;;;;;;;;;;;341906;29;850;-73
2022/06/03 01:46:25;;;;;;;;;;;;;;;;;;341863;29;968;-74
2022/06/03 01:46:38;;;;;;;;;;;;;;;;;;341850;29;989;-74
2022/06/03 01:47:07;;;;;;;;;;;;;;;;;;341877;29;979;-74
2022/06/03 01:47:30;;;;;;;;;;;;;;;;;;341808;29;848;-74
2022/06/03 01:47:46;;;;;;;;;;;;;;;;;;341848;29;978;-74
2022/06/03 01:48:02;;;;;;;;;;;;;;;;;;341873;29;823;-74
2022/06/03 01:48:26;;;;;;;;;;;;;;;;;;341742;29;1260;-74
2022/06/03 01:48:56;;;;;;;;;;;;;;;;;;341873;29;848;-74
2022/06/03 01:49:18;;;;;;;;;;;;;;;;;;341791;29;941;-74
2022/06/03 01:49:47;;;;;;;;;;;;;;;;;;341829;29;788;-74
2022/06/03 01:50:16;;;;;;;;;;;;;;;;;;340504;29;836;-74
2022/06/03 01:50:46;;;;;;;;;;;;;;;;;;340479;29;970;-74
2022/06/03 01:51:03;;;;;;;;;;;;;;;;;;340185;29;1204;-74
2022/06/03 01:51:26;;;;;;;;;;;;;;;;;;340390;29;797;-74
2022/06/03 01:51:42;;;;;;;;;;;;;;;;;;340184;29;1805;-73
2022/06/03 01:52:11;;;;;;;;;;;;;;;;;;341860;29;914;-74
2022/06/03 01:52:24;;;;;;;;;;;;;;;;;;341790;29;981;-74
2022/06/03 01:52:53;;;;;;;;;;;;;;;;;;341849;29;926;-74
2022/06/03 01:53:18;;;;;;;;;;;;;;;;;;341818;29;1043;-74
2022/06/03 01:53:47;;;;;;;;;;;;;;;;;;341857;29;1004;-73
2022/06/03 01:54:16;;;;;;;;;;;;;;;;;;341838;29;783;-74
2022/06/03 01:54:45;;;;;;;;;;;;;;;;;;341811;29;826;-74
2022/06/03 01:55:17;;;;;;;;;;;;;;;;;;341763;29;1045;-74
2022/06/03 01:55:43;;;;;;;;;;;;;;;;;;341775;29;925;-74
2022/06/03 01:55:56;;;;;;;;;;;;;;;;;;341835;29;861;-74
2022/06/03 01:56:21;;;;;;;;;;;;;;;;;;341871;29;933;-74
2022/06/03 01:56:53;;;;;;;;;;;;;;;;;;341848;29;1166;-74
2022/06/03 01:57:06;;;;;;;;;;;;;;;;;;341827;29;906;-74
2022/06/03 01:57:43;;;;;;;;;;;;;;;;;;341839;29;841;-74
2022/06/03 01:58:12;;;;;;;;;;;;;;;;;;341751;29;937;-74
2022/06/03 01:58:22;;;;;;;;;;;;;;;;;;341809;29;866;-74
2022/06/03 01:58:39;;;;;;;;;;;;;;;;;;341729;29;858;-74
2022/06/03 01:59:07;;;;;;;;;;;;;;;;;;341824;29;905;-74
2022/06/03 01:59:23;;;;;;;;;;;;;;;;;;341782;29;1017;-74
2022/06/03 01:59:44;;;;;;;;;;;;;;;;;;341716;29;958;-74
2022/06/03 01:59:58;;;;;;;;;;;;;;;;;;341762;29;996;-74
2022/06/03 02:00:08;;;;;;;;;;;;;;;;;;341820;28;1919;-74
2022/06/03 02:00:24;;;;;;;;;;;;;;;;;;343145;28;968;-74
2022/06/03 02:00:39;;;;;;;;;;;;;;;;;;343138;28;1040;-74
2022/06/03 02:01:08;;;;;;;;;;;;;;;;;;343173;28;857;-74
2022/06/03 02:01:37;;;;;;;;;;;;;;;;;;343210;28;866;-74
2022/06/03 02:02:06;;;;;;;;;;;;;;;;;;343146;28;887;-74
2022/06/03 02:02:16;;;;;;;;;;;;;;;;;;343131;28;1056;-74
2022/06/03 02:02:44;;;;;;;;;;;;;;;;;;343150;28;834;-74
2022/06/03 02:03:09;;;;;;;;;;;;;;;;;;343165;28;855;-74
2022/06/03 02:03:38;;;;;;;;;;;;;;;;;;343220;28;878;-73
2022/06/03 02:04:00;;;;;;;;;;;;;;;;;;343109;28;925;-74
2022/06/03 02:04:29;;;;;;;;;;;;;;;;;;343123;28;929;-74
2022/06/03 02:04:51;;;;;;;;;;;;;;;;;;343137;28;928;-74
2022/06/03 02:05:04;;;;;;;;;;;;;;;;;;343100;28;997;-74
2022/06/03 02:05:26;;;;;;;;;;;;;;;;;;343031;28;1295;-74
2022/06/03 02:05:55;;;;;;;;;;;;;;;;;;342371;28;1053;-74
2022/06/03 02:06:23;;;;;;;;;;;;;;;;;;343101;28;938;-74
2022/06/03 02:06:58;;;;;;;;;;;;;;;;;;343155;28;1013;-74
2022/06/03 02:07:35;;;;;;;;;;;;;;;;;;343158;28;1005;-74
2022/06/03 02:07:56;;;;;;;;;;;;;;;;;;343145;28;900;-74
2022/06/03 02:08:06;;;;;;;;;;;;;;;;;;343119;28;1052;-74
2022/06/03 02:08:41;;;;;;;;;;;;;;;;;;343121;28;969;-74
2022/06/03 02:08:54;;;;;;;;;;;;;;;;;;340527;29;824;-74
2022/06/03 02:09:13;;;;;;;;;;;;;;;;;;340514;29;977;-73
2022/06/03 02:09:41;;;;;;;;;;;;;;;;;;340474;29;933;-74
2022/06/03 02:10:01;;;;;;;;;;;;;;;;;;340467;29;985;-74
2022/06/03 02:10:31;;;;;;;;;;;;;;;;;;340487;29;859;-74
2022/06/03 02:11:02;;;;;;;;;;;;;;;;;;340397;29;1001;-74
2022/06/03 02:11:15;;;;;;;;;;;;;;;;;;340429;29;903;-74
2022/06/03 02:11:40;;;;;;;;;;;;;;;;;;340511;29;1052;-74
2022/06/03 02:12:06;;;;;;;;;;;;;;;;;;340431;29;969;-74
2022/06/03 02:12:35;;;;;;;;;;;;;;;;;;340542;29;909;-74
2022/06/03 02:13:04;;;;;;;;;;;;;;;;;;340445;29;961;-74
2022/06/03 02:13:27;;;;;;;;;;;;;;;;;;340443;29;927;-74
2022/06/03 02:13:46;;;;;;;;;;;;;;;;;;340482;29;970;-74
2022/06/03 02:14:05;;;;;;;;;;;;;;;;;;340191;29;1809;-74
2022/06/03 02:14:19;;;;;;;;;;;;;;;;;;341853;29;914;-73
2022/06/03 02:14:43;;;;;;;;;;;;;;;;;;341776;29;962;-73
2022/06/03 02:15:03;;;;;;;;;;;;;;;;;;341756;29;946;-73
2022/06/03 02:15:22;;;;;;;;;;;;;;;;;;341802;29;1060;-74
2022/06/03 02:15:53;;;;;;;;;;;;;;;;;;341825;29;965;-74
2022/06/03 02:16:22;;;;;;;;;;;;;;;;;;341690;29;1022;-74
2022/06/03 02:16:35;;;;;;;;;;;;;;;;;;341706;29;922;-74
2022/06/03 02:17:04;;;;;;;;;;;;;;;;;;341787;29;1007;-74
2022/06/03 02:17:27;;;;;;;;;;;;;;;;;;341786;29;1055;-74
2022/06/03 02:17:56;;;;;;;;;;;;;;;;;;341843;29;886;-74
2022/06/03 02:18:18;;;;;;;;;;;;;;;;;;341828;29;945;-74
2022/06/03 02:18:34;;;;;;;;;;;;;;;;;;341798;29;858;-73
2022/06/03 02:19:03;;;;;;;;;;;;;;;;;;341744;29;934;-74
2022/06/03 02:19:31;;;;;;;;;;;;;;;;;;341807;29;1005;-74
2022/06/03 02:20:00;;;;;;;;;;;;;;;;;;341827;29;891;-74
2022/06/03 02:20:22;;;;;;;;;;;;;;;;;;341845;29;930;-74
2022/06/03 02:20:36;;;;;;;;;;;;;;;;;;341515;29;922;-74
2022/06/03 02:21:05;;;;;;;;;;;;;;;;;;341586;29;978;-74
2022/06/03 02:21:23;;;;;;;;;;;;;;;;;;341777;29;966;-74
2022/06/03 02:21:34;;;;;;;;;;;;;;;;;;341840;29;973;-74
2022/06/03 02:21:47;;;;;;;;;;;;;;;;;;341819;29;866;-74
2022/06/03 02:22:15;;;;;;;;;;;;;;;;;;341802;29;978;-74
2022/06/03 02:22:28;;;;;;;;;;;;;;;;;;341795;29;938;-74
2022/06/03 02:23:03;;;;;;;;;;;;;;;;;;341820;29;984;-74
2022/06/03 02:23:32;;;;;;;;;;;;;;;;;;341577;29;1255;-74
2022/06/03 02:24:03;;;;;;;;;;;;;;;;;;341757;29;1132;-74
2022/06/03 02:24:32;;;;;;;;;;;;;;;;;;341748;29;970;-74
2022/06/03 02:24:57;;;;;;;;;;;;;;;;;;341833;29;914;-74
2022/06/03 02:25:13;;;;;;;;;;;;;;;;;;341724;29;1013;-74
2022/06/03 02:25:31;;;;;;;;;;;;;;;;;;341829;29;934;-73
2022/06/03 02:26:14;;;;;;;;;;;;;;;;;;341832;29;985;-74
2022/06/03 02:26:26;;;;;;;;;;;;;;;;;;341874;29;850;-74
2022/06/03 02:26:55;;;;;;;;;;;;;;;;;;341590;28;1808;-74
2022/06/03 02:27:05;;;;;;;;;;;;;;;;;;343036;28;1013;-74
2022/06/03 02:27:30;;;;;;;;;;;;;;;;;;343111;28;993;-74
2022/06/03 02:27:46;;;;;;;;;;;;;;;;;;343216;28;784;-73
2022/06/03 02:28:02;;;;;;;;;;;;;;;;;;343139;28;832;-73
2022/06/03 02:28:31;;;;;;;;;;;;;;;;;;343184;28;917;-74
2022/06/03 02:28:47;;;;;;;;;;;;;;;;;;343150;28;961;-74
2022/06/03 02:31:03;;;;;;;;;;;;;;;;;;343013;28;1056;-74
2022/06/03 02:31:21;;;;;;;;;;;;;;;;;;342858;28;930;-73
2022/06/03 02:31:44;;;;;;;;;;;;;;;;;;342965;28;1144;-74
2022/06/03 02:32:11;;;;;;;;;;;;;;;;;;342968;28;925;-74
2022/06/03 02:32:48;;;;;;;;;;;;;;;;;;342798;28;1191;-74
2022/06/03 02:33:14;;;;;;;;;;;;;;;;;;343015;28;776;-73
2022/06/03 02:33:39;;;;;;;;;;;;;;;;;;343009;28;850;-74
2022/06/03 02:34:08;;;;;;;;;;;;;;;;;;342983;28;984;-74
2022/06/03 02:34:31;;;;;;;;;;;;;;;;;;342995;28;933;-74
2022/06/03 02:34:55;;;;;;;;;;;;;;;;;;342998;28;819;-74
2022/06/03 02:35:14;;;;;;;;;;;;;;;;;;340652;28;1378;-73
2022/06/03 02:35:43;;;;;;;;;;;;;;;;;;341686;29;827;-74
2022/06/03 02:36:11;;;;;;;;;;;;;;;;;;341616;29;914;-74
2022/06/03 02:36:40;;;;;;;;;;;;;;;;;;340325;29;973;-74
2022/06/03 02:37:09;;;;;;;;;;;;;;;;;;340300;29;958;-74
2022/06/03 02:37:34;;;;;;;;;;;;;;;;;;340295;29;1146;-74
2022/06/03 02:37:57;;;;;;;;;;;;;;;;;;340516;29;958;-74
2022/06/03 02:38:32;;;;;;;;;;;;;;;;;;339881;29;1837;-74
2022/06/03 02:39:12;;;;;;;;;;;;;;;;;;340479;29;919;-74
2022/06/03 02:39:37;;;;;;;;;;;;;;;;;;340327;29;922;-74